Time;durP1;ratioP1;P1;durP2;ratioP2;P2;SDS_P1;SDS_P2;PMS_P1;PMS_P2;Temp;Humidity;BMP_temperature;BMP_pressure;BME280_temperature;BME280_humidity;BME280_pressure;Samples;Min_cycle;Max_cycle;Signal;HPM_P1;HPM_P2
2023/07/22 00:01:06;;;;;;;;;;;15.80;99.90;;;;;;5052593;28;20382;-81
2023/07/22 00:03:31;;;;;;;;;;;15.80;99.90;;;;;;5037342;28;20342;-84
2023/07/22 00:06:07;;;;;;;;;;;15.80;99.90;;;;;;5036030;28;19965;-83
2023/07/22 00:08:33;;;;;;;;;;;15.80;99.90;;;;;;5035989;28;20278;-81
2023/07/22 00:10:58;;;;;;;;;;;15.80;99.90;;;;;;5036561;28;20347;-83
2023/07/22 00:13:26;;;;;;;;;;;15.70;99.90;;;;;;5047125;28;19916;-83
2023/07/22 00:15:55;;;;;;;;;;;15.60;99.90;;;;;;5052468;28;19917;-82
2023/07/22 00:18:21;;;;;;;;;;;15.60;99.90;;;;;;5034780;28;19913;-83
2023/07/22 00:20:47;;;;;;;;;;;15.50;99.90;;;;;;5036442;28;19914;-82
2023/07/22 00:23:12;;;;;;;;;;;15.50;99.90;;;;;;5052518;28;19972;-82
2023/07/22 00:25:38;;;;;;;;;;;15.40;99.90;;;;;;5052624;28;19921;-83
2023/07/22 00:28:06;;;;;;;;;;;15.40;99.90;;;;;;5046741;28;19929;-83
2023/07/22 00:30:32;;;;;;;;;;;15.30;99.90;;;;;;5033606;28;19931;-82
2023/07/22 00:32:57;;;;;;;;;;;15.30;99.90;;;;;;5051246;28;19920;-82
2023/07/22 00:35:23;;;;;;;;;;;15.30;99.90;;;;;;5034707;28;19917;-81
2023/07/22 00:37:48;;;;;;;;;;;15.20;99.90;;;;;;5036401;28;19917;-83
2023/07/22 00:40:14;;;;;;;;;;;15.20;99.90;;;;;;5035264;28;19924;-82
2023/07/22 00:42:39;;;;;;;;;;;15.20;99.90;;;;;;5036388;28;19920;-83
2023/07/22 00:45:05;;;;;;;;;;;15.10;99.90;;;;;;5037821;28;20751;-82
2023/07/22 00:47:32;;;;;;;;;;;15.10;99.90;;;;;;5033842;28;19925;-83
2023/07/22 00:49:59;;;;;;;;;;;15.10;99.90;;;;;;5035491;28;19948;-83
2023/07/22 00:52:24;;;;;;;;;;;15.10;99.90;;;;;;5033408;28;20589;-85
2023/07/22 00:54:50;;;;;;;;;;;15.10;99.90;;;;;;5045362;28;20371;-83
2023/07/22 00:57:15;;;;;;;;;;;15.10;99.90;;;;;;5052922;28;19919;-83
2023/07/22 00:59:41;;;;;;;;;;;15.10;99.90;;;;;;5037183;28;19925;-83
2023/07/22 01:02:06;;;;;;;;;;;15.20;99.90;;;;;;5034823;28;19921;-83
2023/07/22 01:04:33;;;;;;;;;;;15.30;99.90;;;;;;5050747;28;19917;-81
2023/07/22 01:06:58;;;;;;;;;;;15.30;99.90;;;;;;5044392;28;19950;-84
2023/07/22 01:09:24;;;;;;;;;;;15.30;99.90;;;;;;5034703;28;20402;-83
2023/07/22 01:11:49;;;;;;;;;;;15.40;99.90;;;;;;5036165;28;19990;-85
2023/07/22 01:14:15;;;;;;;;;;;15.40;99.90;;;;;;5035930;28;19917;-83
2023/07/22 01:16:41;;;;;;;;;;;15.40;99.90;;;;;;5034493;28;19971;-83
2023/07/22 01:19:06;;;;;;;;;;;15.50;99.90;;;;;;5034701;28;20261;-83
2023/07/22 01:21:32;;;;;;;;;;;15.50;99.90;;;;;;5050254;28;19924;-83
2023/07/22 01:23:58;;;;;;;;;;;15.50;99.90;;;;;;5033720;28;19928;-82
2023/07/22 01:26:23;;;;;;;;;;;15.50;99.90;;;;;;5044629;28;19928;-84
2023/07/22 01:28:49;;;;;;;;;;;15.50;99.90;;;;;;5050974;28;19928;-83
2023/07/22 01:31:14;;;;;;;;;;;15.50;99.90;;;;;;5049565;28;19916;-82
2023/07/22 01:33:40;;;;;;;;;;;15.50;99.90;;;;;;5033293;28;19957;-82
2023/07/22 01:36:05;;;;;;;;;;;15.50;99.90;;;;;;5033375;28;20287;-82
2023/07/22 01:38:33;;;;;;;;;;;15.50;99.90;;;;;;5035126;28;21240;-84
2023/07/22 01:40:59;;;;;;;;;;;15.50;99.90;;;;;;5035468;28;20414;-83
2023/07/22 01:43:24;;;;;;;;;;;15.40;99.90;;;;;;5036134;28;20398;-83
2023/07/22 01:45:50;;;;;;;;;;;15.40;99.90;;;;;;5033669;28;19925;-83
2023/07/22 01:48:15;;;;;;;;;;;15.40;99.90;;;;;;5034060;28;19928;-82
2023/07/22 01:50:41;;;;;;;;;;;15.40;99.90;;;;;;5050086;28;19917;-82
2023/07/22 01:53:07;;;;;;;;;;;15.30;99.90;;;;;;5033326;28;19913;-83
2023/07/22 01:55:33;;;;;;;;;;;15.30;99.90;;;;;;5049386;28;19925;-84
2023/07/22 01:57:58;;;;;;;;;;;15.20;99.90;;;;;;5036317;28;20401;-83
2023/07/22 02:00:24;;;;;;;;;;;15.20;99.90;;;;;;5048978;28;19917;-82
2023/07/22 02:02:49;;;;;;;;;;;15.10;99.90;;;;;;5034607;28;20275;-83
2023/07/22 02:05:15;;;;;;;;;;;15.10;99.90;;;;;;5034753;28;19917;-81
2023/07/22 02:07:40;;;;;;;;;;;15.10;99.90;;;;;;5034440;28;19925;-82
2023/07/22 02:10:06;;;;;;;;;;;15.00;99.90;;;;;;5035371;28;20003;-82
2023/07/22 02:12:31;;;;;;;;;;;15.00;99.90;;;;;;5035746;28;20362;-83
2023/07/22 02:14:57;;;;;;;;;;;14.90;99.90;;;;;;5034465;28;19985;-82
2023/07/22 02:17:23;;;;;;;;;;;14.90;99.90;;;;;;5049326;28;19924;-82
2023/07/22 02:19:49;;;;;;;;;;;14.80;99.90;;;;;;5034598;28;20769;-82
2023/07/22 02:22:14;;;;;;;;;;;14.80;99.90;;;;;;5050114;28;19917;-82
2023/07/22 02:24:40;;;;;;;;;;;14.80;99.90;;;;;;5035187;28;20000;-83
2023/07/22 02:27:05;;;;;;;;;;;14.70;99.90;;;;;;5035363;28;19921;-84
2023/07/22 02:29:31;;;;;;;;;;;14.70;99.90;;;;;;5064937;28;20298;-82
2023/07/22 02:31:57;;;;;;;;;;;14.70;99.90;;;;;;5033681;28;19927;-82
2023/07/22 02:34:23;;;;;;;;;;;14.70;99.90;;;;;;5034615;28;19923;-82
2023/07/22 02:36:48;;;;;;;;;;;14.70;99.90;;;;;;5042294;28;19996;-82
2023/07/22 02:39:14;;;;;;;;;;;14.70;99.90;;;;;;5036237;28;20035;-82
2023/07/22 02:41:39;;;;;;;;;;;14.70;99.90;;;;;;5050633;28;19925;-83
2023/07/22 02:44:05;;;;;;;;;;;14.70;99.90;;;;;;5050449;28;19952;-82
2023/07/22 02:46:31;;;;;;;;;;;14.70;99.90;;;;;;5033479;28;19917;-82
2023/07/22 02:48:57;;;;;;;;;;;14.70;99.90;;;;;;5045213;28;20020;-82
2023/07/22 02:51:22;;;;;;;;;;;14.60;99.90;;;;;;5048438;28;19921;-83
2023/07/22 02:53:48;;;;;;;;;;;14.70;99.90;;;;;;5036625;28;19917;-82
2023/07/22 02:56:13;;;;;;;;;;;14.60;99.90;;;;;;5033914;28;19999;-83
2023/07/22 02:58:39;;;;;;;;;;;14.60;99.90;;;;;;5035613;28;19962;-84
2023/07/22 03:01:05;;;;;;;;;;;14.60;99.90;;;;;;5031658;28;19917;-82
2023/07/22 03:03:32;;;;;;;;;;;14.50;99.90;;;;;;5033092;28;19921;-82
2023/07/22 03:05:59;;;;;;;;;;;14.50;99.90;;;;;;5049681;28;20267;-83
2023/07/22 03:08:25;;;;;;;;;;;14.50;99.90;;;;;;5033939;28;19925;-82
2023/07/22 03:10:50;;;;;;;;;;;14.50;99.90;;;;;;5036223;28;19998;-82
2023/07/22 03:13:16;;;;;;;;;;;14.40;99.90;;;;;;5035099;28;19924;-83
2023/07/22 03:15:41;;;;;;;;;;;14.40;99.90;;;;;;5033853;28;19925;-82
2023/07/22 03:18:07;;;;;;;;;;;14.30;99.90;;;;;;5033455;28;19992;-83
2023/07/22 03:20:32;;;;;;;;;;;14.30;99.90;;;;;;5047536;28;19927;-83
2023/07/22 03:22:58;;;;;;;;;;;14.30;99.90;;;;;;5032304;28;19960;-83
2023/07/22 03:25:23;;;;;;;;;;;14.20;99.90;;;;;;5042548;28;20294;-83
2023/07/22 03:27:49;;;;;;;;;;;14.20;99.90;;;;;;5036051;28;19951;-83
2023/07/22 03:30:15;;;;;;;;;;;14.20;99.90;;;;;;5048569;28;20305;-84
2023/07/22 03:32:42;;;;;;;;;;;14.20;99.90;;;;;;5033231;28;19920;-83
2023/07/22 03:35:11;;;;;;;;;;;14.20;99.90;;;;;;5033608;28;20337;-84
2023/07/22 03:37:37;;;;;;;;;;;14.10;99.90;;;;;;5048737;28;19928;-84
2023/07/22 03:40:20;;;;;;;;;;;14.10;99.90;;;;;;5050173;28;19921;-83
2023/07/22 03:42:51;;;;;;;;;;;14.20;99.90;;;;;;5035591;28;19923;-83
2023/07/22 03:45:17;;;;;;;;;;;14.20;99.90;;;;;;5032187;28;19921;-83
2023/07/22 03:47:44;;;;;;;;;;;14.20;99.90;;;;;;5031548;28;19925;-82
2023/07/22 03:50:09;;;;;;;;;;;14.20;99.90;;;;;;5033337;28;20003;-83
2023/07/22 03:52:35;;;;;;;;;;;14.20;99.90;;;;;;5032738;28;20426;-82
2023/07/22 03:55:00;;;;;;;;;;;14.20;99.90;;;;;;5034332;28;20383;-83
2023/07/22 03:57:26;;;;;;;;;;;14.20;99.90;;;;;;5034215;28;19928;-83
2023/07/22 03:59:53;;;;;;;;;;;14.20;99.90;;;;;;5033636;28;19927;-83
2023/07/22 04:02:18;;;;;;;;;;;14.20;99.90;;;;;;5048791;28;19916;-84
2023/07/22 04:04:44;;;;;;;;;;;14.20;99.90;;;;;;5032840;28;19913;-82
2023/07/22 04:07:09;;;;;;;;;;;14.20;99.90;;;;;;5031972;28;20322;-84
2023/07/22 04:09:35;;;;;;;;;;;14.20;99.90;;;;;;5034387;28;19925;-82
2023/07/22 04:12:01;;;;;;;;;;;14.20;99.90;;;;;;5053743;28;20023;-82
2023/07/22 04:14:26;;;;;;;;;;;14.20;99.90;;;;;;5035998;28;19921;-83
2023/07/22 04:16:52;;;;;;;;;;;14.20;99.90;;;;;;5034908;28;19917;-84
2023/07/22 04:19:17;;;;;;;;;;;14.20;99.90;;;;;;5036290;28;19917;-82
2023/07/22 04:21:42;;;;;;;;;;;14.20;99.90;;;;;;5036643;28;19927;-82
2023/07/22 04:24:10;;;;;;;;;;;14.30;99.90;;;;;;5035922;28;19923;-84
2023/07/22 04:26:35;;;;;;;;;;;14.20;99.90;;;;;;5038818;28;20294;-85
2023/07/22 04:29:01;;;;;;;;;;;14.20;99.90;;;;;;5037322;28;19929;-83
2023/07/22 04:31:26;;;;;;;;;;;14.30;99.90;;;;;;5036149;28;19962;-84
2023/07/22 04:33:52;;;;;;;;;;;14.20;99.90;;;;;;5051583;28;19927;-84
2023/07/22 04:36:17;;;;;;;;;;;14.30;99.90;;;;;;5035168;28;19913;-84
2023/07/22 04:38:43;;;;;;;;;;;14.30;99.90;;;;;;5036843;28;19921;-82
2023/07/22 04:41:08;;;;;;;;;;;14.30;99.90;;;;;;5037893;28;20670;-83
2023/07/22 04:43:34;;;;;;;;;;;14.40;99.90;;;;;;5034875;28;19916;-82
2023/07/22 04:45:59;;;;;;;;;;;14.40;99.90;;;;;;5036138;28;19924;-82
2023/07/22 04:48:25;;;;;;;;;;;14.40;99.90;;;;;;5035177;28;19951;-82
2023/07/22 04:50:51;;;;;;;;;;;14.50;99.90;;;;;;5051241;28;19913;-81
2023/07/22 04:53:17;;;;;;;;;;;14.50;99.90;;;;;;5036502;28;19924;-82
2023/07/22 04:55:43;;;;;;;;;;;14.60;99.90;;;;;;5047121;28;20015;-82
2023/07/22 04:58:10;;;;;;;;;;;14.60;99.90;;;;;;5051331;28;19916;-82
2023/07/22 05:00:37;;;;;;;;;;;14.60;99.90;;;;;;5035039;28;19921;-84
2023/07/22 05:03:02;;;;;;;;;;;14.60;99.90;;;;;;5050925;28;19921;-84
2023/07/22 05:05:28;;;;;;;;;;;14.60;99.90;;;;;;5033132;28;20658;-84
2023/07/22 05:07:54;;;;;;;;;;;14.70;99.90;;;;;;5049531;28;19967;-83
2023/07/22 05:10:19;;;;;;;;;;;14.70;99.90;;;;;;5049971;28;19927;-82
2023/07/22 05:12:45;;;;;;;;;;;14.70;99.90;;;;;;5043554;28;19923;-83
2023/07/22 05:15:11;;;;;;;;;;;14.80;99.90;;;;;;5034537;28;20020;-85
2023/07/22 05:17:37;;;;;;;;;;;14.90;99.90;;;;;;5034643;28;19917;-85
2023/07/22 05:20:06;;;;;;;;;;;14.90;99.90;;;;;;5047649;28;20272;-84
2023/07/22 05:22:31;;;;;;;;;;;14.90;99.90;;;;;;5050858;28;19921;-84
2023/07/22 05:24:57;;;;;;;;;;;15.00;99.90;;;;;;5037942;28;19967;-85
2023/07/22 05:27:22;;;;;;;;;;;15.00;99.90;;;;;;5033031;28;19940;-83
2023/07/22 05:29:48;;;;;;;;;;;15.10;99.90;;;;;;5036139;28;19917;-85
2023/07/22 05:32:13;;;;;;;;;;;15.20;99.90;;;;;;5045851;28;20396;-87
2023/07/22 05:34:38;;;;;;;;;;;15.20;99.90;;;;;;5050803;28;19916;-84
2023/07/22 05:37:04;;;;;;;;;;;15.20;99.90;;;;;;5036988;28;19928;-84
2023/07/22 05:39:30;;;;;;;;;;;15.20;99.90;;;;;;5033994;28;20262;-83
2023/07/22 05:41:55;;;;;;;;;;;15.20;99.90;;;;;;5033374;28;20010;-84
2023/07/22 05:44:21;;;;;;;;;;;15.30;99.90;;;;;;5035034;28;19916;-83
2023/07/22 05:46:46;;;;;;;;;;;15.30;99.90;;;;;;5052400;28;19967;-83
2023/07/22 05:49:12;;;;;;;;;;;15.40;99.90;;;;;;5042819;28;19928;-83
2023/07/22 05:51:37;;;;;;;;;;;15.50;99.90;;;;;;5051667;28;19938;-85
2023/07/22 05:54:03;;;;;;;;;;;15.50;99.90;;;;;;5055952;28;19917;-83
2023/07/22 05:56:28;;;;;;;;;;;15.60;99.90;;;;;;5037708;28;19913;-82
2023/07/22 05:58:54;;;;;;;;;;;15.60;99.90;;;;;;5036469;28;20397;-84
2023/07/22 06:01:19;;;;;;;;;;;15.60;99.90;;;;;;5033705;28;19927;-84
2023/07/22 06:03:45;;;;;;;;;;;15.60;99.90;;;;;;5035091;28;20495;-85
2023/07/22 06:06:10;;;;;;;;;;;15.60;99.90;;;;;;5034230;28;19917;-85
2023/07/22 06:08:36;;;;;;;;;;;15.70;99.90;;;;;;5034401;28;19927;-84
2023/07/22 06:11:01;;;;;;;;;;;15.80;99.90;;;;;;5032144;28;19920;-83
2023/07/22 06:13:27;;;;;;;;;;;16.00;99.90;;;;;;5032250;28;19948;-84
2023/07/22 06:15:52;;;;;;;;;;;16.10;99.90;;;;;;5033851;28;19924;-83
2023/07/22 06:18:18;;;;;;;;;;;16.30;99.90;;;;;;5049323;28;20298;-83
2023/07/22 06:20:44;;;;;;;;;;;16.50;99.90;;;;;;5050009;28;19920;-83
2023/07/22 06:23:09;;;;;;;;;;;16.60;99.90;;;;;;5050472;28;22289;-84
2023/07/22 06:25:35;;;;;;;;;;;16.70;99.90;;;;;;5032609;28;20440;-85
2023/07/22 06:28:00;;;;;;;;;;;16.80;99.90;;;;;;5033826;28;19928;-85
2023/07/22 06:30:26;;;;;;;;;;;16.80;99.90;;;;;;5050183;28;20003;-85
2023/07/22 06:32:51;;;;;;;;;;;16.90;99.90;;;;;;5034364;28;19921;-84
2023/07/22 06:35:17;;;;;;;;;;;16.90;99.90;;;;;;5044389;28;19921;-85
2023/07/22 06:37:43;;;;;;;;;;;16.90;99.90;;;;;;5051115;28;19952;-86
2023/07/22 06:40:08;;;;;;;;;;;16.90;99.90;;;;;;5034945;28;19938;-85
2023/07/22 06:42:34;;;;;;;;;;;16.90;99.90;;;;;;5050135;28;20334;-84
2023/07/22 06:44:59;;;;;;;;;;;16.90;99.90;;;;;;5034563;28;19928;-83
2023/07/22 06:47:25;;;;;;;;;;;17.00;99.90;;;;;;5033362;28;20358;-84
2023/07/22 06:49:50;;;;;;;;;;;17.10;99.90;;;;;;5040601;28;19913;-85
2023/07/22 06:52:16;;;;;;;;;;;17.10;99.90;;;;;;5035532;28;19912;-87
2023/07/22 06:54:41;;;;;;;;;;;17.20;99.90;;;;;;5032143;28;19959;-86
2023/07/22 06:57:07;;;;;;;;;;;17.20;99.90;;;;;;5035357;28;19921;-87
2023/07/22 06:59:32;;;;;;;;;;;17.30;99.90;;;;;;5034924;28;20290;-87
2023/07/22 07:01:58;;;;;;;;;;;17.40;99.90;;;;;;5043304;28;19917;-86
2023/07/22 07:04:23;;;;;;;;;;;17.40;99.90;;;;;;5035110;28;19913;-87
2023/07/22 07:06:49;;;;;;;;;;;17.40;99.90;;;;;;5045192;28;19917;-85
2023/07/22 07:09:15;;;;;;;;;;;17.50;99.90;;;;;;5033704;28;19921;-84
2023/07/22 07:11:40;;;;;;;;;;;17.60;99.90;;;;;;5033208;28;19916;-84
2023/07/22 07:14:06;;;;;;;;;;;17.60;99.90;;;;;;5034020;28;19943;-82
2023/07/22 07:16:32;;;;;;;;;;;17.70;99.90;;;;;;5032647;28;19971;-85
2023/07/22 07:18:58;;;;;;;;;;;17.70;99.90;;;;;;5033707;28;19921;-86
2023/07/22 07:21:24;;;;;;;;;;;17.80;99.90;;;;;;5050346;28;19927;-83
2023/07/22 07:23:50;;;;;;;;;;;17.80;99.90;;;;;;5050041;28;19913;-85
2023/07/22 07:26:15;;;;;;;;;;;17.80;99.90;;;;;;5033220;28;20015;-84
2023/07/22 07:28:41;;;;;;;;;;;17.90;99.90;;;;;;5032321;28;19928;-83
2023/07/22 07:31:06;;;;;;;;;;;17.90;99.90;;;;;;5034418;28;19999;-84
2023/07/22 07:33:32;;;;;;;;;;;17.90;99.90;;;;;;5042653;28;19916;-82
2023/07/22 07:35:58;;;;;;;;;;;18.00;99.90;;;;;;5034991;28;20342;-84
2023/07/22 07:38:23;;;;;;;;;;;18.10;99.90;;;;;;5035005;28;19931;-86
2023/07/22 07:41:11;;;;;;;;;;;18.30;99.90;;;;;;5033907;28;20007;-85
2023/07/22 07:43:37;;;;;;;;;;;18.50;99.90;;;;;;5050285;28;19928;-84
2023/07/22 07:46:12;;;;;;;;;;;18.60;99.90;;;;;;5052419;28;19917;-84
2023/07/22 07:48:37;;;;;;;;;;;18.80;99.90;;;;;;5035989;28;19921;-84
2023/07/22 07:51:03;;;;;;;;;;;18.90;99.90;;;;;;5053946;28;19984;-84
2023/07/22 07:53:28;;;;;;;;;;;19.00;99.90;;;;;;5037121;28;19966;-85
2023/07/22 07:55:54;;;;;;;;;;;19.00;99.90;;;;;;5037074;28;19923;-85
2023/07/22 07:58:19;;;;;;;;;;;19.00;99.90;;;;;;5036045;28;19917;-85
2023/07/22 08:00:45;;;;;;;;;;;19.20;99.90;;;;;;5036540;28;20315;-85
2023/07/22 08:03:10;;;;;;;;;;;19.40;99.90;;;;;;5037144;28;19917;-85
2023/07/22 08:05:36;;;;;;;;;;;19.60;99.90;;;;;;5038031;28;19947;-85
2023/07/22 08:08:01;;;;;;;;;;;19.70;99.90;;;;;;5036379;28;19924;-85
2023/07/22 08:10:27;;;;;;;;;;;19.90;99.90;;;;;;5034656;28;19913;-84
2023/07/22 08:12:52;;;;;;;;;;;19.80;99.90;;;;;;5035081;28;20016;-84
2023/07/22 08:15:17;;;;;;;;;;;19.90;99.90;;;;;;5036317;28;20722;-84
2023/07/22 08:17:43;;;;;;;;;;;20.00;99.90;;;;;;5037135;28;19924;-84
2023/07/22 08:20:10;;;;;;;;;;;20.10;99.90;;;;;;5046562;28;19920;-85
2023/07/22 08:22:35;;;;;;;;;;;20.10;99.90;;;;;;5041571;28;19913;-85
2023/07/22 08:25:01;;;;;;;;;;;20.10;99.90;;;;;;5038669;28;19927;-87
2023/07/22 08:27:26;;;;;;;;;;;20.10;99.90;;;;;;5036519;28;20299;-87
2023/07/22 08:29:52;;;;;;;;;;;20.10;99.90;;;;;;5038079;28;19978;-87
2023/07/22 08:32:17;;;;;;;;;;;20.20;99.90;;;;;;5035838;28;19960;-88
2023/07/22 08:34:43;;;;;;;;;;;20.30;99.90;;;;;;5038960;28;19913;-85
2023/07/22 08:37:09;;;;;;;;;;;20.30;99.90;;;;;;5040611;28;19974;-87
2023/07/22 08:39:34;;;;;;;;;;;20.40;99.90;;;;;;5035905;28;20007;-86
2023/07/22 08:42:03;;;;;;;;;;;20.40;99.90;;;;;;5036913;28;19917;-85
2023/07/22 08:44:33;;;;;;;;;;;20.40;99.90;;;;;;5045360;28;20052;-85
2023/07/22 08:46:59;;;;;;;;;;;20.50;99.90;;;;;;5032618;28;20385;-83
2023/07/22 08:49:26;;;;;;;;;;;20.60;99.90;;;;;;5049149;28;19932;-83
2023/07/22 08:51:52;;;;;;;;;;;20.60;99.90;;;;;;5041315;28;19917;-82
2023/07/22 08:54:18;;;;;;;;;;;20.70;99.90;;;;;;5051667;28;19916;-85
2023/07/22 08:56:44;;;;;;;;;;;20.70;99.90;;;;;;5048348;28;19921;-86
2023/07/22 08:59:10;;;;;;;;;;;20.70;99.90;;;;;;5047129;28;20291;-86
2023/07/22 09:01:37;;;;;;;;;;;20.80;99.90;;;;;;5055230;28;19916;-86
2023/07/22 09:04:03;;;;;;;;;;;20.80;99.90;;;;;;5038118;28;20008;-85
2023/07/22 09:06:28;;;;;;;;;;;20.90;99.90;;;;;;5049243;28;20293;-85
2023/07/22 09:08:54;;;;;;;;;;;20.90;99.90;;;;;;5034007;28;19964;-84
2023/07/22 09:11:21;;;;;;;;;;;20.90;99.90;;;;;;5033573;28;19921;-85
2023/07/22 09:13:47;;;;;;;;;;;20.80;99.90;;;;;;5033163;28;19917;-85
2023/07/22 09:16:15;;;;;;;;;;;20.80;99.90;;;;;;5051168;28;19920;-87
2023/07/22 09:18:41;;;;;;;;;;;20.70;99.90;;;;;;5034577;28;19917;-85
2023/07/22 09:21:06;;;;;;;;;;;20.70;99.90;;;;;;5031954;28;19928;-83
2023/07/22 09:23:35;;;;;;;;;;;20.80;99.90;;;;;;5032014;28;19921;-83
2023/07/22 09:26:11;;;;;;;;;;;20.80;99.90;;;;;;5049490;28;19921;-83
2023/07/22 09:28:56;;;;;;;;;;;20.80;99.90;;;;;;5032819;28;19969;-86
2023/07/22 09:31:22;;;;;;;;;;;20.80;99.90;;;;;;5033624;28;19917;-88
2023/07/22 09:33:47;;;;;;;;;;;20.80;99.90;;;;;;5051065;28;20014;-85
2023/07/22 09:36:13;;;;;;;;;;;20.80;99.90;;;;;;5031364;28;19917;-86
2023/07/22 09:38:38;;;;;;;;;;;20.70;99.90;;;;;;5034298;28;20114;-88
2023/07/22 09:41:04;;;;;;;;;;;20.70;99.90;;;;;;5048379;28;19923;-85
2023/07/22 09:43:30;;;;;;;;;;;20.70;99.90;;;;;;5040200;28;20204;-86
2023/07/22 09:45:55;;;;;;;;;;;20.90;99.90;;;;;;5049768;28;19923;-88
2023/07/22 09:48:22;;;;;;;;;;;21.10;99.90;;;;;;5034000;28;19929;-86
2023/07/22 09:50:55;;;;;;;;;;;21.40;99.90;;;;;;5034858;28;20379;-87
2023/07/22 09:53:21;;;;;;;;;;;21.90;99.90;;;;;;5035048;28;20016;-88
2023/07/22 09:55:47;;;;;;;;;;;22.40;99.90;;;;;;5035045;28;20330;-86
2023/07/22 09:58:14;;;;;;;;;;;22.40;99.90;;;;;;5034677;28;19925;-86
2023/07/22 10:00:42;;;;;;;;;;;22.50;99.90;;;;;;5036181;28;19936;-91
2023/07/22 10:03:13;;;;;;;;;;;22.50;99.90;;;;;;5036615;28;19947;-85
2023/07/22 10:05:38;;;;;;;;;;;22.30;99.90;;;;;;5035316;28;20493;-84
2023/07/22 10:08:05;;;;;;;;;;;22.40;99.90;;;;;;5032582;28;19924;-83
2023/07/22 10:10:32;;;;;;;;;;;22.30;99.90;;;;;;5031779;28;19917;-83
2023/07/22 10:12:58;;;;;;;;;;;22.20;99.90;;;;;;5030366;28;19921;-84
2023/07/22 10:15:25;;;;;;;;;;;22.20;99.90;;;;;;5032118;28;19916;-82
2023/07/22 10:17:50;;;;;;;;;;;22.30;99.90;;;;;;5032048;28;19913;-81
2023/07/22 10:20:16;;;;;;;;;;;22.30;99.90;;;;;;5028731;28;19975;-82
2023/07/22 10:22:43;;;;;;;;;;;22.20;99.90;;;;;;5031442;28;20630;-84
2023/07/22 10:25:10;;;;;;;;;;;22.50;99.90;;;;;;5040294;28;19921;-82
2023/07/22 10:27:35;;;;;;;;;;;22.80;99.90;;;;;;5032142;28;20353;-84
2023/07/22 10:30:02;;;;;;;;;;;22.90;99.80;;;;;;5047592;28;19924;-83
2023/07/22 10:32:31;;;;;;;;;;;23.10;99.50;;;;;;5030022;28;19936;-85
2023/07/22 10:34:57;;;;;;;;;;;23.30;99.40;;;;;;5046712;28;19928;-83
2023/07/22 10:37:29;;;;;;;;;;;23.40;99.20;;;;;;5028152;28;19922;-84
2023/07/22 10:39:58;;;;;;;;;;;23.50;99.30;;;;;;5047103;28;19924;-83
2023/07/22 10:42:24;;;;;;;;;;;23.50;99.40;;;;;;5031482;28;20634;-87
2023/07/22 10:44:49;;;;;;;;;;;23.60;99.30;;;;;;5034784;28;20266;-87
2023/07/22 10:47:30;;;;;;;;;;;23.50;99.10;;;;;;5034198;28;19927;-85
2023/07/22 10:50:04;;;;;;;;;;;23.30;99.10;;;;;;5033298;28;19916;-85
2023/07/22 10:52:40;;;;;;;;;;;23.20;99.00;;;;;;5030265;28;19960;-85
2023/07/22 10:55:13;;;;;;;;;;;23.10;99.10;;;;;;5031450;28;19943;-86
2023/07/22 10:57:47;;;;;;;;;;;23.10;98.90;;;;;;5033663;28;20477;-89
2023/07/22 11:00:18;;;;;;;;;;;23.00;98.70;;;;;;5033053;28;20715;-88
2023/07/22 11:02:44;;;;;;;;;;;22.90;98.80;;;;;;5045137;28;19924;-87
2023/07/22 11:05:11;;;;;;;;;;;22.70;98.70;;;;;;5042605;28;20290;-87
2023/07/22 11:07:43;;;;;;;;;;;22.50;98.50;;;;;;5033097;28;20051;-85
2023/07/22 11:10:13;;;;;;;;;;;22.30;98.50;;;;;;5032761;28;19960;-85
2023/07/22 11:12:40;;;;;;;;;;;22.10;98.60;;;;;;5049030;28;19945;-83
2023/07/22 11:15:06;;;;;;;;;;;22.00;98.80;;;;;;5033646;28;20016;-83
2023/07/22 11:17:32;;;;;;;;;;;21.90;98.90;;;;;;5047290;28;20353;-84
2023/07/22 11:19:59;;;;;;;;;;;21.80;98.90;;;;;;5037272;28;19921;-83
2023/07/22 11:22:24;;;;;;;;;;;21.70;99.00;;;;;;5031025;28;20002;-85
2023/07/22 11:24:50;;;;;;;;;;;21.60;99.00;;;;;;5035092;28;19929;-85
2023/07/22 11:27:15;;;;;;;;;;;21.50;98.70;;;;;;5031331;28;19978;-83
2023/07/22 11:29:41;;;;;;;;;;;21.40;98.90;;;;;;5031464;28;19921;-83
2023/07/22 11:32:07;;;;;;;;;;;21.20;98.70;;;;;;5035053;28;19921;-82
2023/07/22 11:34:33;;;;;;;;;;;21.20;98.90;;;;;;5033590;28;19920;-84
2023/07/22 11:36:58;;;;;;;;;;;21.20;99.10;;;;;;5036247;28;20260;-87
2023/07/22 11:39:25;;;;;;;;;;;21.20;99.00;;;;;;5043266;28;19920;-86
2023/07/22 11:41:51;;;;;;;;;;;21.20;99.20;;;;;;5052241;28;19917;-86
2023/07/22 11:44:17;;;;;;;;;;;21.40;99.20;;;;;;5034533;28;20478;-87
2023/07/22 11:46:47;;;;;;;;;;;21.60;99.20;;;;;;5054845;28;19921;-86
2023/07/22 11:49:13;;;;;;;;;;;21.70;99.10;;;;;;5055317;28;20528;-88
2023/07/22 11:51:42;;;;;;;;;;;21.90;99.10;;;;;;5054360;28;20433;-87
2023/07/22 11:54:07;;;;;;;;;;;21.90;99.00;;;;;;5048011;28;19917;-88
2023/07/22 11:56:33;;;;;;;;;;;21.80;99.00;;;;;;5065843;28;19921;-92
2023/07/22 11:58:58;;;;;;;;;;;21.70;99.10;;;;;;5048145;28;19921;-89
2023/07/22 12:01:29;;;;;;;;;;;21.50;99.20;;;;;;5042044;28;20015;-90
2023/07/22 12:03:55;;;;;;;;;;;21.30;99.30;;;;;;5041279;28;19921;-88
2023/07/22 12:06:24;;;;;;;;;;;21.20;99.40;;;;;;5056162;28;20023;-86
2023/07/22 12:08:51;;;;;;;;;;;21.10;99.60;;;;;;5058338;28;19925;-89
2023/07/22 12:11:20;;;;;;;;;;;21.20;99.70;;;;;;5052324;28;19917;-87
2023/07/22 12:13:50;;;;;;;;;;;21.70;99.50;;;;;;5040737;28;19913;-89
2023/07/22 12:16:20;;;;;;;;;;;22.20;99.20;;;;;;5046509;28;19917;-89
2023/07/22 12:18:46;;;;;;;;;;;22.60;98.90;;;;;;5058696;28;19916;-87
2023/07/22 12:21:13;;;;;;;;;;;22.80;98.80;;;;;;5040122;28;20252;-87
2023/07/22 12:23:38;;;;;;;;;;;23.00;98.70;;;;;;5056115;28;19917;-88
2023/07/22 12:26:04;;;;;;;;;;;23.10;98.40;;;;;;5040984;28;19913;-86
2023/07/22 12:28:30;;;;;;;;;;;23.00;98.10;;;;;;5035779;28;20338;-87
2023/07/22 12:30:57;;;;;;;;;;;22.70;97.80;;;;;;5051346;28;19920;-85
2023/07/22 12:33:24;;;;;;;;;;;22.40;97.70;;;;;;5037068;28;19920;-88
2023/07/22 12:35:49;;;;;;;;;;;22.10;97.80;;;;;;5050977;28;20719;-84
2023/07/22 12:38:15;;;;;;;;;;;21.90;97.20;;;;;;5064763;28;20035;-86
2023/07/22 12:40:40;;;;;;;;;;;21.60;97.20;;;;;;5031521;28;20402;-86
2023/07/22 12:43:06;;;;;;;;;;;21.40;97.20;;;;;;5033910;28;19963;-84
2023/07/22 12:45:31;;;;;;;;;;;21.20;97.50;;;;;;5030913;28;20287;-85
2023/07/22 12:47:57;;;;;;;;;;;20.90;98.30;;;;;;5032752;28;19928;-85
2023/07/22 12:50:22;;;;;;;;;;;20.50;99.50;;;;;;5044647;28;20401;-85
2023/07/22 12:52:48;;;;;;;;;;;20.00;99.90;;;;;;5033998;28;20369;-86
2023/07/22 12:55:13;;;;;;;;;;;19.60;99.90;;;;;;5032972;28;19916;-85
2023/07/22 12:57:38;;;;;;;;;;;19.50;99.90;;;;;;5032079;28;19965;-85
2023/07/22 13:00:09;;;;;;;;;;;19.40;99.90;;;;;;5033560;28;19921;-86
2023/07/22 13:02:34;;;;;;;;;;;19.40;99.90;;;;;;5049270;28;19917;-86
2023/07/22 13:05:00;;;;;;;;;;;19.60;99.90;;;;;;5034223;28;19961;-84
2023/07/22 13:07:25;;;;;;;;;;;19.70;99.90;;;;;;5038791;28;20035;-85
2023/07/22 13:09:53;;;;;;;;;;;19.70;99.90;;;;;;5032647;28;19913;-87
2023/07/22 13:12:18;;;;;;;;;;;19.90;99.90;;;;;;5050429;28;19956;-86
2023/07/22 13:14:45;;;;;;;;;;;20.40;99.90;;;;;;5035267;28;20347;-87
2023/07/22 13:17:10;;;;;;;;;;;20.80;99.90;;;;;;5035068;28;19920;-88
2023/07/22 13:19:36;;;;;;;;;;;21.60;99.90;;;;;;5035176;28;19913;-87
2023/07/22 13:22:01;;;;;;;;;;;22.30;99.90;;;;;;5034391;28;19959;-84
2023/07/22 13:24:27;;;;;;;;;;;22.80;99.90;;;;;;5032686;28;20487;-87
2023/07/22 13:26:52;;;;;;;;;;;23.10;99.90;;;;;;5032962;28;19948;-86
2023/07/22 13:29:17;;;;;;;;;;;23.30;99.90;;;;;;5035142;28;20398;-88
2023/07/22 13:31:43;;;;;;;;;;;23.40;99.90;;;;;;5032624;28;19924;-88
2023/07/22 13:34:08;;;;;;;;;;;23.50;99.90;;;;;;5034620;28;19913;-87
2023/07/22 13:36:34;;;;;;;;;;;23.30;99.90;;;;;;5042183;28;19947;-86
2023/07/22 13:38:59;;;;;;;;;;;23.10;99.90;;;;;;5033722;28;19921;-88
2023/07/22 13:41:25;;;;;;;;;;;22.90;99.90;;;;;;5034047;28;20505;-87
2023/07/22 13:43:51;;;;;;;;;;;22.60;99.90;;;;;;5036416;28;19913;-88
2023/07/22 13:46:16;;;;;;;;;;;22.30;99.90;;;;;;5048388;28;19917;-87
2023/07/22 13:48:42;;;;;;;;;;;22.10;99.90;;;;;;5045450;28;20000;-88
2023/07/22 13:51:07;;;;;;;;;;;21.90;99.90;;;;;;5032236;28;19917;-87
2023/07/22 13:53:33;;;;;;;;;;;21.80;99.90;;;;;;5041144;28;20501;-88
2023/07/22 13:55:58;;;;;;;;;;;21.70;99.90;;;;;;5033357;28;20404;-85
2023/07/22 13:58:24;;;;;;;;;;;21.50;99.90;;;;;;5034369;28;20010;-88
2023/07/22 14:00:50;;;;;;;;;;;21.50;99.90;;;;;;5031328;28;20362;-86
2023/07/22 14:03:15;;;;;;;;;;;21.50;99.90;;;;;;5039036;28;19917;-87
2023/07/22 14:05:41;;;;;;;;;;;21.50;99.90;;;;;;5031511;28;19924;-86
2023/07/22 14:08:06;;;;;;;;;;;21.50;99.90;;;;;;5032325;28;19925;-86
2023/07/22 14:10:32;;;;;;;;;;;21.50;99.90;;;;;;5032525;28;19921;-87